sensor_id;sensor_type;location;lat;lon;timestamp;temperature;humidity
11229;DHT22;5671;47.936;8.716;2022-11-30T00:01:37;3.60;93.60
11229;DHT22;5671;47.936;8.716;2022-11-30T00:04:09;3.60;93.50
11229;DHT22;5671;47.936;8.716;2022-11-30T00:06:40;3.60;93.60
11229;DHT22;5671;47.936;8.716;2022-11-30T00:09:07;3.60;93.60
11229;DHT22;5671;47.936;8.716;2022-11-30T00:11:34;3.60;93.60
11229;DHT22;5671;47.936;8.716;2022-11-30T00:14:01;3.60;93.50
11229;DHT22;5671;47.936;8.716;2022-11-30T00:16:28;3.60;93.50
11229;DHT22;5671;47.936;8.716;2022-11-30T00:18:55;3.60;93.50
11229;DHT22;5671;47.936;8.716;2022-11-30T00:21:23;3.60;93.60
11229;DHT22;5671;47.936;8.716;2022-11-30T00:23:50;3.60;93.70
11229;DHT22;5671;47.936;8.716;2022-11-30T00:26:18;3.60;93.70
11229;DHT22;5671;47.936;8.716;2022-11-30T00:28:47;3.60;93.60
11229;DHT22;5671;47.936;8.716;2022-11-30T00:31:15;3.60;93.60
11229;DHT22;5671;47.936;8.716;2022-11-30T00:33:43;3.60;93.60
11229;DHT22;5671;47.936;8.716;2022-11-30T00:36:12;3.60;93.50
11229;DHT22;5671;47.936;8.716;2022-11-30T00:38:40;3.60;93.40
11229;DHT22;5671;47.936;8.716;2022-11-30T00:41:08;3.60;93.40
11229;DHT22;5671;47.936;8.716;2022-11-30T00:43:35;3.60;93.50
11229;DHT22;5671;47.936;8.716;2022-11-30T00:46:02;3.60;93.50
11229;DHT22;5671;47.936;8.716;2022-11-30T00:48:29;3.60;93.40
11229;DHT22;5671;47.936;8.716;2022-11-30T00:50:56;3.60;93.40
11229;DHT22;5671;47.936;8.716;2022-11-30T00:53:23;3.60;93.50
11229;DHT22;5671;47.936;8.716;2022-11-30T00:55:51;3.60;93.40
11229;DHT22;5671;47.936;8.716;2022-11-30T00:58:18;3.60;93.40
11229;DHT22;5671;47.936;8.716;2022-11-30T01:00:45;3.60;93.50
11229;DHT22;5671;47.936;8.716;2022-11-30T01:03:13;3.50;93.50
11229;DHT22;5671;47.936;8.716;2022-11-30T01:05:40;3.60;93.50
11229;DHT22;5671;47.936;8.716;2022-11-30T01:08:10;3.60;93.50
11229;DHT22;5671;47.936;8.716;2022-11-30T01:10:38;3.60;93.50
11229;DHT22;5671;47.936;8.716;2022-11-30T01:13:07;3.60;93.60
11229;DHT22;5671;47.936;8.716;2022-11-30T01:15:36;3.60;93.60
11229;DHT22;5671;47.936;8.716;2022-11-30T01:18:03;3.60;93.70
11229;DHT22;5671;47.936;8.716;2022-11-30T01:20:30;3.60;93.70
11229;DHT22;5671;47.936;8.716;2022-11-30T01:22:57;3.60;93.80
11229;DHT22;5671;47.936;8.716;2022-11-30T01:25:24;3.60;93.70
11229;DHT22;5671;47.936;8.716;2022-11-30T01:27:51;3.60;93.70
11229;DHT22;5671;47.936;8.716;2022-11-30T01:30:19;3.60;93.70
11229;DHT22;5671;47.936;8.716;2022-11-30T01:32:46;3.60;93.70
11229;DHT22;5671;47.936;8.716;2022-11-30T01:35:13;3.60;93.60
11229;DHT22;5671;47.936;8.716;2022-11-30T01:37:42;3.60;93.60
11229;DHT22;5671;47.936;8.716;2022-11-30T01:40:10;3.60;93.70
11229;DHT22;5671;47.936;8.716;2022-11-30T01:42:44;3.60;93.60
11229;DHT22;5671;47.936;8.716;2022-11-30T01:45:12;3.60;93.70
11229;DHT22;5671;47.936;8.716;2022-11-30T01:48:01;3.60;93.70
11229;DHT22;5671;47.936;8.716;2022-11-30T01:50:37;3.60;93.70
11229;DHT22;5671;47.936;8.716;2022-11-30T01:53:07;3.60;93.70
11229;DHT22;5671;47.936;8.716;2022-11-30T01:55:36;3.60;93.60
11229;DHT22;5671;47.936;8.716;2022-11-30T01:58:05;3.60;93.60
11229;DHT22;5671;47.936;8.716;2022-11-30T02:00:34;3.60;93.60
11229;DHT22;5671;47.936;8.716;2022-11-30T02:03:05;3.60;93.50
11229;DHT22;5671;47.936;8.716;2022-11-30T02:05:37;3.60;93.40
11229;DHT22;5671;47.936;8.716;2022-11-30T02:08:04;3.60;93.40
11229;DHT22;5671;47.936;8.716;2022-11-30T02:10:33;3.60;93.30
11229;DHT22;5671;47.936;8.716;2022-11-30T02:47:14;3.60;93.30
11229;DHT22;5671;47.936;8.716;2022-11-30T02:53:41;3.60;93.40
11229;DHT22;5671;47.936;8.716;2022-11-30T03:00:35;3.60;93.20
11229;DHT22;5671;47.936;8.716;2022-11-30T03:03:56;3.60;93.20
11229;DHT22;5671;47.936;8.716;2022-11-30T03:22:00;3.60;93.30
11229;DHT22;5671;47.936;8.716;2022-11-30T03:24:40;3.60;93.20
11229;DHT22;5671;47.936;8.716;2022-11-30T03:27:07;3.60;93.20
11229;DHT22;5671;47.936;8.716;2022-11-30T03:35:42;3.60;93.20
11229;DHT22;5671;47.936;8.716;2022-11-30T03:38:39;3.60;93.20
11229;DHT22;5671;47.936;8.716;2022-11-30T03:42:33;3.60;93.20
11229;DHT22;5671;47.936;8.716;2022-11-30T03:58:31;3.40;92.70
11229;DHT22;5671;47.936;8.716;2022-11-30T04:01:00;3.40;92.50
11229;DHT22;5671;47.936;8.716;2022-11-30T04:03:27;3.30;92.40
11229;DHT22;5671;47.936;8.716;2022-11-30T04:05:54;3.30;92.40
11229;DHT22;5671;47.936;8.716;2022-11-30T04:08:42;3.30;92.40
11229;DHT22;5671;47.936;8.716;2022-11-30T04:11:30;3.30;92.60
11229;DHT22;5671;47.936;8.716;2022-11-30T04:14:14;3.30;92.60
11229;DHT22;5671;47.936;8.716;2022-11-30T04:16:41;3.20;92.70
11229;DHT22;5671;47.936;8.716;2022-11-30T04:19:08;3.20;92.70
11229;DHT22;5671;47.936;8.716;2022-11-30T04:21:38;3.20;92.70
11229;DHT22;5671;47.936;8.716;2022-11-30T04:24:06;3.20;92.80
11229;DHT22;5671;47.936;8.716;2022-11-30T04:26:34;3.20;92.80
11229;DHT22;5671;47.936;8.716;2022-11-30T04:29:04;3.20;92.70
11229;DHT22;5671;47.936;8.716;2022-11-30T04:31:43;3.20;92.70
11229;DHT22;5671;47.936;8.716;2022-11-30T04:34:10;3.20;92.70
11229;DHT22;5671;47.936;8.716;2022-11-30T04:36:39;3.20;92.70
11229;DHT22;5671;47.936;8.716;2022-11-30T04:39:09;3.20;92.70
11229;DHT22;5671;47.936;8.716;2022-11-30T04:41:36;3.20;92.70
11229;DHT22;5671;47.936;8.716;2022-11-30T04:44:05;3.10;92.80
11229;DHT22;5671;47.936;8.716;2022-11-30T04:46:42;3.10;92.70
11229;DHT22;5671;47.936;8.716;2022-11-30T04:59:45;3.10;92.90
11229;DHT22;5671;47.936;8.716;2022-11-30T05:02:25;3.10;93.00
11229;DHT22;5671;47.936;8.716;2022-11-30T05:05:00;3.10;92.90
11229;DHT22;5671;47.936;8.716;2022-11-30T05:07:31;3.10;92.90
11229;DHT22;5671;47.936;8.716;2022-11-30T05:10:07;3.10;92.70
11229;DHT22;5671;47.936;8.716;2022-11-30T05:12:35;3.10;92.80
11229;DHT22;5671;47.936;8.716;2022-11-30T05:18:40;3.10;92.70
11229;DHT22;5671;47.936;8.716;2022-11-30T05:21:08;3.10;92.60
11229;DHT22;5671;47.936;8.716;2022-11-30T05:23:35;3.10;92.40
11229;DHT22;5671;47.936;8.716;2022-11-30T05:26:03;3.10;92.50
11229;DHT22;5671;47.936;8.716;2022-11-30T05:28:35;3.10;92.50
11229;DHT22;5671;47.936;8.716;2022-11-30T05:31:03;3.10;92.50
11229;DHT22;5671;47.936;8.716;2022-11-30T05:33:31;3.10;92.40
11229;DHT22;5671;47.936;8.716;2022-11-30T05:35:59;3.10;92.40
11229;DHT22;5671;47.936;8.716;2022-11-30T05:38:26;3.10;92.30
11229;DHT22;5671;47.936;8.716;2022-11-30T05:40:58;3.10;92.20
11229;DHT22;5671;47.936;8.716;2022-11-30T05:43:26;3.10;92.30
11229;DHT22;5671;47.936;8.716;2022-11-30T05:46:00;3.10;92.40
11229;DHT22;5671;47.936;8.716;2022-11-30T05:48:30;3.10;92.30
11229;DHT22;5671;47.936;8.716;2022-11-30T05:51:05;3.10;92.30
11229;DHT22;5671;47.936;8.716;2022-11-30T05:53:45;3.10;92.40
11229;DHT22;5671;47.936;8.716;2022-11-30T05:56:26;3.10;92.60
11229;DHT22;5671;47.936;8.716;2022-11-30T05:59:17;3.10;92.80
11229;DHT22;5671;47.936;8.716;2022-11-30T06:07:07;3.10;92.80
11229;DHT22;5671;47.936;8.716;2022-11-30T06:12:09;3.10;92.90
11229;DHT22;5671;47.936;8.716;2022-11-30T06:14:50;3.10;92.80
11229;DHT22;5671;47.936;8.716;2022-11-30T06:17:40;3.10;92.70
11229;DHT22;5671;47.936;8.716;2022-11-30T06:23:21;3.00;92.70
11229;DHT22;5671;47.936;8.716;2022-11-30T06:35:15;3.00;92.60
11229;DHT22;5671;47.936;8.716;2022-11-30T06:37:42;3.00;92.80
11229;DHT22;5671;47.936;8.716;2022-11-30T06:40:23;3.00;92.80
11229;DHT22;5671;47.936;8.716;2022-11-30T06:52:59;3.00;93.20
11229;DHT22;5671;47.936;8.716;2022-11-30T06:55:26;3.00;93.10
11229;DHT22;5671;47.936;8.716;2022-11-30T06:58:23;3.00;93.20
11229;DHT22;5671;47.936;8.716;2022-11-30T07:01:10;3.00;93.20
11229;DHT22;5671;47.936;8.716;2022-11-30T07:03:41;3.00;93.10
11229;DHT22;5671;47.936;8.716;2022-11-30T07:06:10;3.00;93.00
11229;DHT22;5671;47.936;8.716;2022-11-30T07:08:39;3.00;92.90
11229;DHT22;5671;47.936;8.716;2022-11-30T07:11:07;3.00;92.70
11229;DHT22;5671;47.936;8.716;2022-11-30T07:13:35;3.00;92.70
11229;DHT22;5671;47.936;8.716;2022-11-30T07:19:06;3.00;92.50
11229;DHT22;5671;47.936;8.716;2022-11-30T07:21:37;3.00;92.40
11229;DHT22;5671;47.936;8.716;2022-11-30T07:27:24;3.00;92.50
11229;DHT22;5671;47.936;8.716;2022-11-30T07:30:43;3.00;92.60
11229;DHT22;5671;47.936;8.716;2022-11-30T07:32:53;3.00;92.70
11229;DHT22;5671;47.936;8.716;2022-11-30T07:35:23;3.00;92.80
11229;DHT22;5671;47.936;8.716;2022-11-30T07:37:53;3.00;92.60
11229;DHT22;5671;47.936;8.716;2022-11-30T07:40:37;3.00;92.20
11229;DHT22;5671;47.936;8.716;2022-11-30T07:43:10;3.00;91.60
11229;DHT22;5671;47.936;8.716;2022-11-30T07:45:50;2.90;91.20
11229;DHT22;5671;47.936;8.716;2022-11-30T07:48:25;2.90;91.00
11229;DHT22;5671;47.936;8.716;2022-11-30T07:51:02;2.90;91.10
11229;DHT22;5671;47.936;8.716;2022-11-30T07:53:39;2.90;91.20
11229;DHT22;5671;47.936;8.716;2022-11-30T07:56:12;2.90;91.00
11229;DHT22;5671;47.936;8.716;2022-11-30T07:58:40;2.80;90.60
11229;DHT22;5671;47.936;8.716;2022-11-30T08:01:09;2.80;90.30
11229;DHT22;5671;47.936;8.716;2022-11-30T08:03:36;2.80;90.50
11229;DHT22;5671;47.936;8.716;2022-11-30T08:06:10;2.80;90.90
11229;DHT22;5671;47.936;8.716;2022-11-30T08:08:41;2.80;90.80
11229;DHT22;5671;47.936;8.716;2022-11-30T08:11:12;2.80;90.90
11229;DHT22;5671;47.936;8.716;2022-11-30T08:13:42;2.70;90.40
11229;DHT22;5671;47.936;8.716;2022-11-30T08:16:30;2.70;90.70
11229;DHT22;5671;47.936;8.716;2022-11-30T08:48:43;2.50;90.10
11229;DHT22;5671;47.936;8.716;2022-11-30T08:55:04;2.50;90.30
11229;DHT22;5671;47.936;8.716;2022-11-30T08:57:48;2.50;90.10
11229;DHT22;5671;47.936;8.716;2022-11-30T09:00:21;2.40;89.60
11229;DHT22;5671;47.936;8.716;2022-11-30T09:06:27;2.40;90.00
11229;DHT22;5671;47.936;8.716;2022-11-30T09:08:56;2.40;90.10
11229;DHT22;5671;47.936;8.716;2022-11-30T09:11:25;2.40;89.70
11229;DHT22;5671;47.936;8.716;2022-11-30T09:14:14;2.40;90.00
11229;DHT22;5671;47.936;8.716;2022-11-30T09:16:43;2.40;89.90
11229;DHT22;5671;47.936;8.716;2022-11-30T09:21:44;2.40;89.80
11229;DHT22;5671;47.936;8.716;2022-11-30T09:24:13;2.40;89.20
11229;DHT22;5671;47.936;8.716;2022-11-30T09:26:44;2.40;89.60
11229;DHT22;5671;47.936;8.716;2022-11-30T09:29:24;2.40;89.60
11229;DHT22;5671;47.936;8.716;2022-11-30T09:31:59;2.40;89.10
11229;DHT22;5671;47.936;8.716;2022-11-30T09:34:42;2.40;89.20
11229;DHT22;5671;47.936;8.716;2022-11-30T09:37:11;2.40;89.70
11229;DHT22;5671;47.936;8.716;2022-11-30T09:39:52;2.40;89.70
11229;DHT22;5671;47.936;8.716;2022-11-30T09:45:13;2.50;90.30
11229;DHT22;5671;47.936;8.716;2022-11-30T09:50:46;2.60;89.70
11229;DHT22;5671;47.936;8.716;2022-11-30T09:53:24;2.60;89.50
11229;DHT22;5671;47.936;8.716;2022-11-30T09:55:54;2.60;89.90
11229;DHT22;5671;47.936;8.716;2022-11-30T10:05:10;2.80;89.20
11229;DHT22;5671;47.936;8.716;2022-11-30T10:07:58;2.80;89.80
11229;DHT22;5671;47.936;8.716;2022-11-30T10:17:17;3.00;89.30
11229;DHT22;5671;47.936;8.716;2022-11-30T10:28:51;3.10;87.10
11229;DHT22;5671;47.936;8.716;2022-11-30T10:51:43;3.30;87.60
11229;DHT22;5671;47.936;8.716;2022-11-30T10:54:21;3.30;86.50
11229;DHT22;5671;47.936;8.716;2022-11-30T11:00:21;3.40;87.40
11229;DHT22;5671;47.936;8.716;2022-11-30T11:02:56;3.40;86.10
11229;DHT22;5671;47.936;8.716;2022-11-30T11:05:34;3.50;86.50
11229;DHT22;5671;47.936;8.716;2022-11-30T11:08:16;3.50;85.80
11229;DHT22;5671;47.936;8.716;2022-11-30T11:10:51;3.60;86.50
11229;DHT22;5671;47.936;8.716;2022-11-30T11:20:27;3.70;85.30
11229;DHT22;5671;47.936;8.716;2022-11-30T11:25:53;3.70;85.80
11229;DHT22;5671;47.936;8.716;2022-11-30T11:28:25;3.70;85.80
11229;DHT22;5671;47.936;8.716;2022-11-30T11:30:55;3.80;85.20
11229;DHT22;5671;47.936;8.716;2022-11-30T11:33:36;3.80;86.10
11229;DHT22;5671;47.936;8.716;2022-11-30T11:36:23;3.80;85.00
11229;DHT22;5671;47.936;8.716;2022-11-30T11:38:50;3.80;84.40
11229;DHT22;5671;47.936;8.716;2022-11-30T11:41:22;3.80;85.80
11229;DHT22;5671;47.936;8.716;2022-11-30T11:43:59;3.80;85.30
11229;DHT22;5671;47.936;8.716;2022-11-30T11:46:28;3.80;85.60
11229;DHT22;5671;47.936;8.716;2022-11-30T11:48:57;3.80;85.20
11229;DHT22;5671;47.936;8.716;2022-11-30T11:51:32;3.80;86.40
11229;DHT22;5671;47.936;8.716;2022-11-30T11:54:03;3.80;85.80
11229;DHT22;5671;47.936;8.716;2022-11-30T11:56:35;3.80;85.70
11229;DHT22;5671;47.936;8.716;2022-11-30T11:59:06;3.80;85.20
11229;DHT22;5671;47.936;8.716;2022-11-30T12:01:52;3.80;85.80
11229;DHT22;5671;47.936;8.716;2022-11-30T12:04:41;3.80;86.00
11229;DHT22;5671;47.936;8.716;2022-11-30T12:07:17;3.80;85.50
11229;DHT22;5671;47.936;8.716;2022-11-30T12:09:54;3.70;85.60
11229;DHT22;5671;47.936;8.716;2022-11-30T12:12:25;3.70;86.00
11229;DHT22;5671;47.936;8.716;2022-11-30T12:14:54;3.80;87.10
11229;DHT22;5671;47.936;8.716;2022-11-30T12:17:37;3.80;86.90
11229;DHT22;5671;47.936;8.716;2022-11-30T12:20:13;3.70;85.40
11229;DHT22;5671;47.936;8.716;2022-11-30T12:23:01;3.70;85.30
11229;DHT22;5671;47.936;8.716;2022-11-30T12:25:33;3.70;86.20
11229;DHT22;5671;47.936;8.716;2022-11-30T12:28:16;3.70;86.20
11229;DHT22;5671;47.936;8.716;2022-11-30T12:30:55;3.70;85.20
11229;DHT22;5671;47.936;8.716;2022-11-30T12:33:32;3.60;85.10
11229;DHT22;5671;47.936;8.716;2022-11-30T12:36:12;3.60;84.40
11229;DHT22;5671;47.936;8.716;2022-11-30T12:39:07;3.50;84.60
11229;DHT22;5671;47.936;8.716;2022-11-30T12:41:57;3.50;84.50
11229;DHT22;5671;47.936;8.716;2022-11-30T12:47:50;3.40;85.50
11229;DHT22;5671;47.936;8.716;2022-11-30T12:50:35;3.30;86.00
11229;DHT22;5671;47.936;8.716;2022-11-30T12:53:11;3.30;85.60
11229;DHT22;5671;47.936;8.716;2022-11-30T12:55:47;3.20;85.90
11229;DHT22;5671;47.936;8.716;2022-11-30T12:58:28;3.20;86.30
11229;DHT22;5671;47.936;8.716;2022-11-30T13:01:11;3.20;86.30
11229;DHT22;5671;47.936;8.716;2022-11-30T13:03:51;3.20;87.20
11229;DHT22;5671;47.936;8.716;2022-11-30T13:06:25;3.20;87.60
11229;DHT22;5671;47.936;8.716;2022-11-30T13:08:58;3.10;87.20
11229;DHT22;5671;47.936;8.716;2022-11-30T13:11:33;3.10;86.90
11229;DHT22;5671;47.936;8.716;2022-11-30T13:14:00;3.10;86.90
11229;DHT22;5671;47.936;8.716;2022-11-30T13:16:28;3.10;87.10
11229;DHT22;5671;47.936;8.716;2022-11-30T13:19:08;3.00;87.60
11229;DHT22;5671;47.936;8.716;2022-11-30T13:21:55;3.00;87.60
11229;DHT22;5671;47.936;8.716;2022-11-30T13:24:27;3.00;87.00
11229;DHT22;5671;47.936;8.716;2022-11-30T13:26:59;3.00;86.50
11229;DHT22;5671;47.936;8.716;2022-11-30T13:29:46;2.90;86.60
11229;DHT22;5671;47.936;8.716;2022-11-30T13:32:15;2.90;86.80
11229;DHT22;5671;47.936;8.716;2022-11-30T13:34:43;2.90;86.80
11229;DHT22;5671;47.936;8.716;2022-11-30T13:37:17;2.80;86.70
11229;DHT22;5671;47.936;8.716;2022-11-30T13:39:47;2.80;86.70
11229;DHT22;5671;47.936;8.716;2022-11-30T13:42:31;2.80;86.50
11229;DHT22;5671;47.936;8.716;2022-11-30T13:45:16;2.80;86.70
11229;DHT22;5671;47.936;8.716;2022-11-30T13:47:47;2.70;86.60
11229;DHT22;5671;47.936;8.716;2022-11-30T13:50:24;2.70;86.10
11229;DHT22;5671;47.936;8.716;2022-11-30T13:53:19;2.70;86.60
11229;DHT22;5671;47.936;8.716;2022-11-30T13:55:54;2.60;86.40
11229;DHT22;5671;47.936;8.716;2022-11-30T13:58:23;2.60;86.00
11229;DHT22;5671;47.936;8.716;2022-11-30T14:01:21;2.60;85.20
11229;DHT22;5671;47.936;8.716;2022-11-30T14:07:31;2.50;85.10
11229;DHT22;5671;47.936;8.716;2022-11-30T14:10:00;2.40;85.70
11229;DHT22;5671;47.936;8.716;2022-11-30T14:12:47;2.40;86.00
11229;DHT22;5671;47.936;8.716;2022-11-30T14:15:52;2.40;85.80
11229;DHT22;5671;47.936;8.716;2022-11-30T14:18:30;2.40;85.70
11229;DHT22;5671;47.936;8.716;2022-11-30T14:21:00;2.30;85.80
11229;DHT22;5671;47.936;8.716;2022-11-30T14:23:33;2.30;86.10
11229;DHT22;5671;47.936;8.716;2022-11-30T14:26:11;2.30;85.60
11229;DHT22;5671;47.936;8.716;2022-11-30T14:28:42;2.30;85.90
11229;DHT22;5671;47.936;8.716;2022-11-30T14:31:23;2.30;85.90
11229;DHT22;5671;47.936;8.716;2022-11-30T14:33:54;2.30;86.20
11229;DHT22;5671;47.936;8.716;2022-11-30T14:36:27;2.20;86.30
11229;DHT22;5671;47.936;8.716;2022-11-30T14:39:26;2.20;85.90
11229;DHT22;5671;47.936;8.716;2022-11-30T14:41:55;2.20;86.30
11229;DHT22;5671;47.936;8.716;2022-11-30T14:44:27;2.20;85.60
11229;DHT22;5671;47.936;8.716;2022-11-30T14:47:23;2.20;86.40
11229;DHT22;5671;47.936;8.716;2022-11-30T14:49:52;2.20;86.20
11229;DHT22;5671;47.936;8.716;2022-11-30T14:52:33;2.20;86.80
11229;DHT22;5671;47.936;8.716;2022-11-30T14:55:13;2.20;86.60
11229;DHT22;5671;47.936;8.716;2022-11-30T14:57:51;2.20;85.90
11229;DHT22;5671;47.936;8.716;2022-11-30T15:00:22;2.20;85.90
11229;DHT22;5671;47.936;8.716;2022-11-30T15:02:49;2.20;85.20
11229;DHT22;5671;47.936;8.716;2022-11-30T15:05:20;2.20;85.60
11229;DHT22;5671;47.936;8.716;2022-11-30T15:07:48;2.20;86.00
11229;DHT22;5671;47.936;8.716;2022-11-30T15:10:27;2.20;85.50
11229;DHT22;5671;47.936;8.716;2022-11-30T15:12:56;2.20;86.00
11229;DHT22;5671;47.936;8.716;2022-11-30T15:15:24;2.20;86.60
11229;DHT22;5671;47.936;8.716;2022-11-30T15:18:09;2.20;87.10
11229;DHT22;5671;47.936;8.716;2022-11-30T15:20:45;2.20;86.40
11229;DHT22;5671;47.936;8.716;2022-11-30T15:23:14;2.20;86.30
11229;DHT22;5671;47.936;8.716;2022-11-30T15:25:45;2.20;86.40
11229;DHT22;5671;47.936;8.716;2022-11-30T15:28:20;2.20;86.80
11229;DHT22;5671;47.936;8.716;2022-11-30T15:30:53;2.20;86.90
11229;DHT22;5671;47.936;8.716;2022-11-30T15:33:28;2.20;86.70
11229;DHT22;5671;47.936;8.716;2022-11-30T15:35:59;2.20;86.90
11229;DHT22;5671;47.936;8.716;2022-11-30T15:38:28;2.20;87.30
11229;DHT22;5671;47.936;8.716;2022-11-30T15:41:02;2.20;87.70
11229;DHT22;5671;47.936;8.716;2022-11-30T15:43:34;2.20;87.90
11229;DHT22;5671;47.936;8.716;2022-11-30T15:46:26;2.20;88.00
11229;DHT22;5671;47.936;8.716;2022-11-30T15:49:13;2.20;87.40
11229;DHT22;5671;47.936;8.716;2022-11-30T15:51:45;2.20;87.40
11229;DHT22;5671;47.936;8.716;2022-11-30T15:54:13;2.30;87.40
11229;DHT22;5671;47.936;8.716;2022-11-30T15:56:56;2.20;87.50
11229;DHT22;5671;47.936;8.716;2022-11-30T15:59:24;2.30;87.20
11229;DHT22;5671;47.936;8.716;2022-11-30T16:01:58;2.20;87.30
11229;DHT22;5671;47.936;8.716;2022-11-30T16:05:05;2.30;87.60
11229;DHT22;5671;47.936;8.716;2022-11-30T16:07:34;2.30;87.60
11229;DHT22;5671;47.936;8.716;2022-11-30T16:10:16;2.30;87.80
11229;DHT22;5671;47.936;8.716;2022-11-30T16:12:45;2.30;87.90
11229;DHT22;5671;47.936;8.716;2022-11-30T16:15:16;2.30;86.70
11229;DHT22;5671;47.936;8.716;2022-11-30T16:17:43;2.20;86.90
11229;DHT22;5671;47.936;8.716;2022-11-30T16:20:11;2.20;86.50
11229;DHT22;5671;47.936;8.716;2022-11-30T16:22:40;2.20;86.40
11229;DHT22;5671;47.936;8.716;2022-11-30T16:25:12;2.20;86.40
11229;DHT22;5671;47.936;8.716;2022-11-30T16:27:39;2.20;86.30
11229;DHT22;5671;47.936;8.716;2022-11-30T16:30:12;2.20;86.30
11229;DHT22;5671;47.936;8.716;2022-11-30T16:32:39;2.20;86.50
11229;DHT22;5671;47.936;8.716;2022-11-30T16:35:15;2.10;86.90
11229;DHT22;5671;47.936;8.716;2022-11-30T16:37:43;2.20;86.90
11229;DHT22;5671;47.936;8.716;2022-11-30T16:40:11;2.10;87.30
11229;DHT22;5671;47.936;8.716;2022-11-30T16:42:39;2.10;87.20
11229;DHT22;5671;47.936;8.716;2022-11-30T16:45:12;2.10;87.20
11229;DHT22;5671;47.936;8.716;2022-11-30T16:47:40;2.10;87.30
11229;DHT22;5671;47.936;8.716;2022-11-30T16:50:08;2.10;87.30
11229;DHT22;5671;47.936;8.716;2022-11-30T16:52:35;2.10;87.50
11229;DHT22;5671;47.936;8.716;2022-11-30T16:55:04;2.00;87.80
11229;DHT22;5671;47.936;8.716;2022-11-30T16:57:35;2.00;87.70
11229;DHT22;5671;47.936;8.716;2022-11-30T17:00:02;2.10;87.70
11229;DHT22;5671;47.936;8.716;2022-11-30T17:02:31;2.00;87.80
11229;DHT22;5671;47.936;8.716;2022-11-30T17:04:59;2.10;88.10
11229;DHT22;5671;47.936;8.716;2022-11-30T17:07:26;2.10;88.00
11229;DHT22;5671;47.936;8.716;2022-11-30T17:09:53;2.10;88.00
11229;DHT22;5671;47.936;8.716;2022-11-30T17:12:20;2.00;87.10
11229;DHT22;5671;47.936;8.716;2022-11-30T17:14:46;2.10;87.00
11229;DHT22;5671;47.936;8.716;2022-11-30T17:17:13;2.00;86.90
11229;DHT22;5671;47.936;8.716;2022-11-30T17:19:42;2.00;86.90
11229;DHT22;5671;47.936;8.716;2022-11-30T17:22:08;2.00;87.40
11229;DHT22;5671;47.936;8.716;2022-11-30T17:24:35;2.10;87.00
11229;DHT22;5671;47.936;8.716;2022-11-30T17:27:02;2.00;87.00
11229;DHT22;5671;47.936;8.716;2022-11-30T17:29:30;2.00;87.40
11229;DHT22;5671;47.936;8.716;2022-11-30T17:31:57;2.00;87.20
11229;DHT22;5671;47.936;8.716;2022-11-30T17:34:24;2.00;87.20
11229;DHT22;5671;47.936;8.716;2022-11-30T17:36:53;2.00;87.40
11229;DHT22;5671;47.936;8.716;2022-11-30T17:39:21;2.00;87.20
11229;DHT22;5671;47.936;8.716;2022-11-30T17:41:49;2.00;87.10
11229;DHT22;5671;47.936;8.716;2022-11-30T17:44:16;2.00;87.40
11229;DHT22;5671;47.936;8.716;2022-11-30T17:46:43;2.00;87.40
11229;DHT22;5671;47.936;8.716;2022-11-30T17:49:10;2.00;87.10
11229;DHT22;5671;47.936;8.716;2022-11-30T17:51:37;2.00;87.70
11229;DHT22;5671;47.936;8.716;2022-11-30T17:54:05;2.00;87.60
11229;DHT22;5671;47.936;8.716;2022-11-30T17:56:32;2.00;87.80
11229;DHT22;5671;47.936;8.716;2022-11-30T17:59:02;2.00;87.80
11229;DHT22;5671;47.936;8.716;2022-11-30T18:01:29;1.90;87.90
11229;DHT22;5671;47.936;8.716;2022-11-30T18:03:56;1.90;88.00
11229;DHT22;5671;47.936;8.716;2022-11-30T18:06:23;1.90;88.00
11229;DHT22;5671;47.936;8.716;2022-11-30T18:08:50;1.90;88.20
11229;DHT22;5671;47.936;8.716;2022-11-30T18:11:20;1.90;88.40
11229;DHT22;5671;47.936;8.716;2022-11-30T18:13:49;1.90;88.40
11229;DHT22;5671;47.936;8.716;2022-11-30T18:16:19;1.90;88.80
11229;DHT22;5671;47.936;8.716;2022-11-30T18:18:47;1.90;89.10
11229;DHT22;5671;47.936;8.716;2022-11-30T18:21:16;1.80;89.10
11229;DHT22;5671;47.936;8.716;2022-11-30T18:23:44;1.90;89.10
11229;DHT22;5671;47.936;8.716;2022-11-30T18:26:13;1.90;89.10
11229;DHT22;5671;47.936;8.716;2022-11-30T18:28:42;1.90;89.20
11229;DHT22;5671;47.936;8.716;2022-11-30T18:31:09;1.80;89.30
11229;DHT22;5671;47.936;8.716;2022-11-30T18:33:37;1.90;89.30
11229;DHT22;5671;47.936;8.716;2022-11-30T18:36:05;1.80;89.10
11229;DHT22;5671;47.936;8.716;2022-11-30T18:38:32;1.90;89.20
11229;DHT22;5671;47.936;8.716;2022-11-30T18:40:59;1.80;89.00
11229;DHT22;5671;47.936;8.716;2022-11-30T18:43:26;1.90;88.90
11229;DHT22;5671;47.936;8.716;2022-11-30T18:46:02;1.80;88.90
11229;DHT22;5671;47.936;8.716;2022-11-30T18:48:29;1.90;89.20
11229;DHT22;5671;47.936;8.716;2022-11-30T18:50:56;1.90;89.20
11229;DHT22;5671;47.936;8.716;2022-11-30T18:53:23;1.90;89.10
11229;DHT22;5671;47.936;8.716;2022-11-30T18:55:50;1.90;88.90
11229;DHT22;5671;47.936;8.716;2022-11-30T18:58:17;1.90;88.90
11229;DHT22;5671;47.936;8.716;2022-11-30T19:00:43;1.90;88.60
11229;DHT22;5671;47.936;8.716;2022-11-30T19:03:12;1.90;89.00
11229;DHT22;5671;47.936;8.716;2022-11-30T19:05:39;1.90;88.80
11229;DHT22;5671;47.936;8.716;2022-11-30T19:08:08;1.90;88.70
11229;DHT22;5671;47.936;8.716;2022-11-30T19:10:39;1.90;88.70
11229;DHT22;5671;47.936;8.716;2022-11-30T19:13:06;1.90;88.70
11229;DHT22;5671;47.936;8.716;2022-11-30T19:15:36;1.90;88.90
11229;DHT22;5671;47.936;8.716;2022-11-30T19:18:03;1.90;88.60
11229;DHT22;5671;47.936;8.716;2022-11-30T19:20:36;1.90;88.60
11229;DHT22;5671;47.936;8.716;2022-11-30T19:23:03;1.90;88.20
11229;DHT22;5671;47.936;8.716;2022-11-30T19:25:30;1.90;88.00
11229;DHT22;5671;47.936;8.716;2022-11-30T19:27:57;1.90;88.10
11229;DHT22;5671;47.936;8.716;2022-11-30T19:30:24;1.90;88.00
11229;DHT22;5671;47.936;8.716;2022-11-30T19:32:51;2.00;88.40
11229;DHT22;5671;47.936;8.716;2022-11-30T19:35:19;2.00;88.60
11229;DHT22;5671;47.936;8.716;2022-11-30T19:37:50;2.00;88.70
11229;DHT22;5671;47.936;8.716;2022-11-30T19:40:17;2.00;88.60
11229;DHT22;5671;47.936;8.716;2022-11-30T19:42:44;2.00;88.70
11229;DHT22;5671;47.936;8.716;2022-11-30T19:45:11;2.00;88.90
11229;DHT22;5671;47.936;8.716;2022-11-30T19:47:38;2.00;89.00
11229;DHT22;5671;47.936;8.716;2022-11-30T19:50:06;2.00;89.10
11229;DHT22;5671;47.936;8.716;2022-11-30T19:52:32;2.00;89.00
11229;DHT22;5671;47.936;8.716;2022-11-30T19:55:01;2.00;88.70
11229;DHT22;5671;47.936;8.716;2022-11-30T19:57:28;2.00;88.50
11229;DHT22;5671;47.936;8.716;2022-11-30T19:59:54;2.00;88.80
11229;DHT22;5671;47.936;8.716;2022-11-30T20:02:21;2.00;88.30
11229;DHT22;5671;47.936;8.716;2022-11-30T20:04:48;2.00;88.50
11229;DHT22;5671;47.936;8.716;2022-11-30T20:07:15;2.00;88.40
11229;DHT22;5671;47.936;8.716;2022-11-30T20:09:42;2.00;88.40
11229;DHT22;5671;47.936;8.716;2022-11-30T20:12:10;2.00;88.20
11229;DHT22;5671;47.936;8.716;2022-11-30T20:14:37;2.00;88.10
11229;DHT22;5671;47.936;8.716;2022-11-30T20:17:04;2.00;88.50
11229;DHT22;5671;47.936;8.716;2022-11-30T20:19:31;2.00;88.90
11229;DHT22;5671;47.936;8.716;2022-11-30T20:21:58;2.00;89.10
11229;DHT22;5671;47.936;8.716;2022-11-30T20:24:28;2.00;88.80
11229;DHT22;5671;47.936;8.716;2022-11-30T20:26:55;2.00;88.80
11229;DHT22;5671;47.936;8.716;2022-11-30T20:29:23;2.00;89.00
11229;DHT22;5671;47.936;8.716;2022-11-30T20:31:50;2.00;88.40
11229;DHT22;5671;47.936;8.716;2022-11-30T20:34:17;2.00;87.90